createdAt,value
2022-12-03T00:01:25.028Z,16.87
2022-12-03T00:03:53.638Z,15.70
2022-12-03T00:06:25.693Z,17.47
2022-12-03T00:08:55.421Z,16.57
2022-12-03T00:11:23.804Z,17.03
2022-12-03T00:13:52.261Z,17.20
2022-12-03T00:16:20.751Z,17.53
2022-12-03T00:18:49.587Z,17.73
2022-12-03T00:21:19.863Z,17.07
2022-12-03T00:23:49.670Z,18.83
2022-12-03T00:26:24.020Z,17.77
2022-12-03T00:28:52.371Z,17.93
2022-12-03T00:31:23.541Z,17.13
2022-12-03T00:33:52.081Z,16.30
2022-12-03T00:36:21.877Z,17.33
2022-12-03T00:38:51.698Z,18.17
2022-12-03T00:41:24.003Z,16.07
2022-12-03T00:43:58.001Z,17.33
2022-12-03T00:46:26.444Z,15.83
2022-12-03T00:48:55.238Z,16.90
2022-12-03T00:51:26.426Z,15.80
2022-12-03T00:53:56.446Z,16.87
2022-12-03T00:56:25.059Z,17.30
2022-12-03T00:58:56.742Z,16.27
2022-12-03T01:01:25.090Z,16.30
2022-12-03T01:03:53.805Z,17.00
2022-12-03T01:06:22.494Z,15.83
2022-12-03T01:08:50.897Z,15.83
2022-12-03T01:11:39.098Z,16.07
2022-12-03T01:14:07.672Z,17.73
2022-12-03T01:16:36.122Z,16.03
2022-12-03T01:19:04.674Z,17.10
2022-12-03T01:21:33.019Z,16.17
2022-12-03T01:24:01.619Z,17.67
2022-12-03T01:26:31.383Z,16.60
2022-12-03T01:29:00.046Z,16.27
2022-12-03T01:31:46.409Z,17.80
2022-12-03T01:34:14.889Z,16.93
2022-12-03T01:36:43.177Z,15.90
2022-12-03T01:39:11.528Z,17.70
2022-12-03T01:41:41.415Z,16.33
2022-12-03T01:44:14.555Z,16.47
2022-12-03T01:46:42.905Z,16.30
2022-12-03T01:49:11.544Z,16.37
2022-12-03T01:51:39.898Z,16.40
2022-12-03T01:54:08.175Z,16.17
2022-12-03T01:56:36.431Z,17.27
2022-12-03T01:59:06.246Z,16.83
2022-12-03T02:01:34.805Z,16.50
2022-12-03T02:04:03.301Z,16.27
2022-12-03T02:06:33.637Z,17.13
2022-12-03T02:09:02.739Z,15.60
2022-12-03T02:11:32.088Z,16.93
2022-12-03T02:14:01.414Z,17.30
2022-12-03T02:16:31.552Z,16.93
2022-12-03T02:19:00.201Z,15.87
2022-12-03T02:21:29.605Z,16.40
2022-12-03T02:23:59.389Z,17.37
2022-12-03T02:26:29.903Z,16.70
2022-12-03T02:28:58.387Z,17.40
2022-12-03T02:31:26.815Z,16.43
2022-12-03T02:33:55.289Z,16.57
2022-12-03T02:36:23.566Z,16.30
2022-12-03T02:38:53.119Z,16.77
2022-12-03T02:41:35.277Z,16.90
2022-12-03T02:44:05.058Z,17.13
2022-12-03T02:46:33.450Z,17.17
2022-12-03T02:49:02.020Z,16.40
2022-12-03T02:51:30.604Z,17.00
2022-12-03T02:53:58.939Z,16.23
2022-12-03T02:56:28.488Z,16.90
2022-12-03T02:59:04.162Z,16.47
2022-12-03T03:01:34.975Z,17.30
2022-12-03T03:04:04.599Z,15.97
2022-12-03T03:06:33.000Z,16.10
2022-12-03T03:09:01.527Z,17.13
2022-12-03T03:11:29.918Z,17.63
2022-12-03T03:13:59.582Z,16.90
2022-12-03T03:16:28.097Z,16.83
2022-12-03T03:18:57.947Z,16.77
2022-12-03T03:21:26.307Z,16.53
2022-12-03T03:23:54.664Z,17.20
2022-12-03T03:26:23.180Z,17.00
2022-12-03T03:28:52.032Z,16.17
2022-12-03T03:31:21.025Z,17.23
2022-12-03T03:33:49.404Z,17.13
2022-12-03T03:36:19.165Z,16.47
2022-12-03T03:38:47.646Z,17.00
2022-12-03T03:41:18.240Z,17.07
2022-12-03T03:43:46.597Z,16.20
2022-12-03T03:46:15.098Z,16.90
2022-12-03T03:48:43.569Z,18.00
2022-12-03T03:51:11.970Z,17.27
2022-12-03T03:53:42.225Z,16.97
2022-12-03T03:56:10.651Z,16.40
2022-12-03T03:58:39.031Z,16.43
2022-12-03T04:01:07.483Z,16.33
2022-12-03T04:03:35.971Z,16.93
2022-12-03T04:06:04.505Z,16.23
2022-12-03T04:08:32.842Z,17.60
2022-12-03T04:11:25.648Z,16.03
2022-12-03T04:13:53.991Z,16.83
2022-12-03T04:16:22.372Z,16.47
2022-12-03T04:18:51.190Z,16.07
2022-12-03T04:21:37.370Z,16.47
2022-12-03T04:24:06.071Z,16.83
2022-12-03T04:26:53.497Z,15.57
2022-12-03T04:29:21.962Z,16.17
2022-12-03T04:32:08.119Z,16.23
2022-12-03T04:34:54.427Z,15.90
2022-12-03T04:37:23.181Z,16.77
2022-12-03T04:39:51.597Z,16.27
2022-12-03T04:42:21.436Z,17.17
2022-12-03T04:44:49.838Z,16.87
2022-12-03T04:47:18.744Z,17.63
2022-12-03T04:49:47.457Z,16.57
2022-12-03T04:52:16.247Z,16.97
2022-12-03T04:54:44.615Z,16.93
2022-12-03T04:57:13.071Z,17.53
2022-12-03T04:59:42.801Z,16.60
2022-12-03T05:02:11.470Z,17.47
2022-12-03T05:04:42.399Z,17.63
2022-12-03T05:07:14.421Z,17.57
2022-12-03T05:09:42.834Z,17.50
2022-12-03T05:12:11.361Z,17.63
2022-12-03T05:14:39.756Z,17.30
2022-12-03T05:17:09.537Z,16.83
2022-12-03T05:19:55.723Z,17.73
2022-12-03T05:22:24.240Z,17.27
2022-12-03T05:24:54.839Z,17.10
2022-12-03T05:27:24.333Z,17.10
2022-12-03T05:29:54.047Z,17.27
2022-12-03T05:32:24.393Z,18.20
2022-12-03T05:34:53.740Z,16.43
2022-12-03T05:37:22.330Z,16.70
2022-12-03T05:39:50.851Z,17.97
2022-12-03T05:42:36.677Z,18.27
2022-12-03T05:45:05.271Z,17.73
2022-12-03T05:47:35.245Z,17.60
2022-12-03T05:50:03.611Z,17.73
2022-12-03T05:52:32.041Z,17.83
2022-12-03T05:55:00.593Z,18.13
2022-12-03T05:57:29.056Z,17.43
2022-12-03T05:59:57.484Z,17.70
2022-12-03T06:02:25.987Z,18.13
2022-12-03T06:04:56.057Z,18.00
2022-12-03T06:07:24.730Z,18.53
2022-12-03T06:09:53.101Z,18.33
2022-12-03T06:12:21.662Z,17.73
2022-12-03T06:14:50.106Z,18.27
2022-12-03T06:17:18.508Z,17.33
2022-12-03T06:19:47.360Z,18.63
2022-12-03T06:22:17.272Z,18.97
2022-12-03T06:24:45.670Z,17.83
2022-12-03T06:27:14.111Z,18.70
2022-12-03T06:29:42.765Z,17.70
2022-12-03T06:32:11.230Z,19.07
2022-12-03T06:34:42.295Z,17.87
2022-12-03T06:37:10.788Z,18.20
2022-12-03T06:39:40.583Z,17.43
2022-12-03T06:42:09.126Z,17.77
2022-12-03T06:44:37.500Z,17.00
2022-12-03T06:47:06.146Z,18.10
2022-12-03T06:49:34.860Z,17.57
2022-12-03T06:52:03.190Z,17.83
2022-12-03T06:54:31.699Z,18.40
2022-12-03T06:57:01.355Z,18.73
2022-12-03T06:59:30.139Z,18.67
2022-12-03T07:01:58.603Z,18.73
2022-12-03T07:04:27.006Z,18.37
2022-12-03T07:06:55.433Z,18.63
2022-12-03T07:09:23.783Z,17.30
2022-12-03T07:11:52.130Z,18.60
2022-12-03T07:14:21.991Z,19.53
2022-12-03T07:16:52.449Z,18.83
2022-12-03T07:19:21.079Z,19.17
2022-12-03T07:21:51.980Z,17.93
2022-12-03T07:24:20.524Z,18.17
2022-12-03T07:26:48.793Z,19.33
2022-12-03T07:29:17.313Z,18.77
2022-12-03T07:31:47.172Z,19.67
2022-12-03T07:34:15.774Z,18.37
2022-12-03T07:36:44.121Z,18.67
2022-12-03T07:39:12.503Z,20.57
2022-12-03T07:41:40.925Z,19.40
2022-12-03T07:44:14.180Z,20.23
2022-12-03T07:46:43.330Z,19.57
2022-12-03T07:49:13.372Z,19.87
2022-12-03T07:51:43.212Z,19.77
2022-12-03T07:54:11.542Z,19.60
2022-12-03T07:56:39.901Z,20.30
2022-12-03T07:59:08.546Z,19.67
2022-12-03T08:01:37.068Z,20.57
2022-12-03T08:04:05.615Z,21.40
2022-12-03T08:06:35.560Z,21.60
2022-12-03T08:09:04.152Z,21.07
2022-12-03T08:11:32.711Z,21.13
2022-12-03T08:14:01.120Z,22.37
2022-12-03T08:16:32.302Z,21.17
2022-12-03T08:19:00.995Z,21.50
2022-12-03T08:21:29.455Z,21.50
2022-12-03T08:23:59.287Z,20.60
2022-12-03T08:26:28.172Z,20.87
2022-12-03T08:28:56.740Z,21.77
2022-12-03T08:31:32.728Z,22.47
2022-12-03T08:34:08.723Z,22.47
2022-12-03T08:36:37.623Z,21.63
2022-12-03T08:39:15.355Z,20.50
2022-12-03T08:42:01.302Z,21.80
2022-12-03T08:44:30.361Z,22.80
2022-12-03T08:47:04.821Z,20.73
2022-12-03T08:49:34.656Z,22.77
2022-12-03T08:52:12.592Z,21.60
2022-12-03T08:54:42.811Z,20.63
2022-12-03T08:57:32.369Z,22.50
2022-12-03T09:00:01.255Z,21.30
2022-12-03T09:02:31.019Z,21.43
2022-12-03T09:04:59.423Z,21.97
2022-12-03T09:07:30.308Z,22.23
2022-12-03T09:10:00.206Z,20.93
2022-12-03T09:12:30.112Z,22.33
2022-12-03T09:14:58.780Z,22.10
2022-12-03T09:17:27.598Z,21.30
2022-12-03T09:19:57.688Z,20.57
2022-12-03T09:22:26.387Z,20.40
2022-12-03T09:24:55.069Z,20.33
2022-12-03T09:27:26.365Z,19.83
2022-12-03T09:29:58.128Z,19.27
2022-12-03T09:32:29.937Z,19.33
2022-12-03T09:34:58.920Z,20.40
2022-12-03T09:37:30.712Z,20.57
2022-12-03T09:39:59.417Z,19.53
2022-12-03T09:42:30.490Z,20.43
2022-12-03T09:45:01.334Z,18.97
2022-12-03T09:47:50.630Z,18.63
2022-12-03T09:50:21.570Z,19.67
2022-12-03T09:52:51.328Z,20.10
2022-12-03T09:55:20.514Z,19.90
2022-12-03T09:57:50.610Z,18.93
2022-12-03T10:00:19.975Z,18.43
2022-12-03T10:02:48.985Z,19.07
2022-12-03T10:05:17.965Z,17.80
2022-12-03T10:07:49.045Z,19.20
2022-12-03T10:10:17.914Z,20.17
2022-12-03T10:12:46.352Z,19.37
2022-12-03T10:15:16.848Z,20.13
2022-12-03T10:17:45.359Z,20.37
2022-12-03T10:20:16.335Z,20.97
2022-12-03T10:22:45.218Z,20.10
2022-12-03T10:25:17.658Z,20.90
2022-12-03T10:27:58.466Z,20.83
2022-12-03T10:30:50.440Z,21.83
2022-12-03T10:33:23.625Z,21.10
2022-12-03T10:35:59.214Z,21.53
2022-12-03T10:38:27.908Z,21.50
2022-12-03T10:41:08.603Z,22.10
2022-12-03T10:43:39.777Z,22.93
2022-12-03T10:46:22.172Z,21.10
2022-12-03T10:49:20.703Z,22.57
2022-12-03T10:51:49.303Z,21.43
2022-12-03T10:54:26.046Z,22.87
2022-12-03T10:56:56.994Z,23.33
2022-12-03T10:59:26.483Z,21.80
2022-12-03T11:01:59.595Z,22.73
2022-12-03T11:04:30.796Z,23.53
2022-12-03T11:07:06.453Z,21.97
2022-12-03T11:09:35.250Z,23.60
2022-12-03T11:12:05.820Z,22.90
2022-12-03T11:14:53.149Z,22.83
2022-12-03T11:17:37.608Z,21.90
2022-12-03T11:20:09.935Z,22.60
2022-12-03T11:22:44.916Z,21.73
2022-12-03T11:25:32.457Z,21.83
2022-12-03T11:28:31.072Z,20.87
2022-12-03T11:31:01.411Z,21.47
2022-12-03T11:33:33.225Z,20.80
2022-12-03T11:36:12.943Z,22.73
2022-12-03T11:38:52.376Z,21.87
2022-12-03T11:41:22.124Z,20.67
2022-12-03T11:44:09.175Z,21.13
2022-12-03T11:46:44.320Z,21.33
2022-12-03T11:49:22.671Z,22.77
2022-12-03T11:51:52.692Z,22.20
2022-12-03T11:54:21.099Z,22.93
2022-12-03T11:56:52.916Z,22.10
2022-12-03T11:59:27.747Z,23.47
2022-12-03T12:01:56.187Z,23.20
2022-12-03T12:04:34.943Z,22.10
2022-12-03T12:07:06.633Z,23.93
2022-12-03T12:09:52.065Z,23.40
2022-12-03T12:12:29.285Z,23.27
2022-12-03T12:14:58.168Z,21.47
2022-12-03T12:17:31.788Z,22.43
2022-12-03T12:20:22.956Z,23.87
2022-12-03T12:22:53.046Z,23.60
2022-12-03T12:25:37.566Z,22.93
2022-12-03T12:28:06.243Z,23.23
2022-12-03T12:30:35.449Z,22.43
2022-12-03T12:33:15.816Z,21.57
2022-12-03T12:35:44.341Z,21.60
2022-12-03T12:38:19.732Z,21.00
2022-12-03T12:40:49.541Z,19.30
2022-12-03T12:43:23.726Z,18.50
2022-12-03T12:45:53.436Z,20.03
2022-12-03T12:48:26.105Z,20.53
2022-12-03T12:50:59.767Z,20.00
2022-12-03T12:53:35.820Z,20.07
2022-12-03T12:56:09.885Z,20.13
2022-12-03T12:58:39.540Z,20.07
2022-12-03T13:01:11.665Z,20.90
2022-12-03T13:03:43.497Z,19.80
2022-12-03T13:06:12.785Z,20.17
2022-12-03T13:08:59.809Z,20.07
2022-12-03T13:11:37.092Z,19.57
2022-12-03T13:14:07.631Z,19.57
2022-12-03T13:16:41.973Z,20.17
2022-12-03T13:19:22.709Z,21.43
2022-12-03T13:21:51.445Z,20.40
2022-12-03T13:24:28.878Z,21.37
2022-12-03T13:26:57.382Z,20.30
2022-12-03T13:29:25.716Z,20.37
2022-12-03T13:31:54.720Z,21.00
2022-12-03T13:34:24.316Z,20.50
2022-12-03T13:36:58.078Z,21.40
2022-12-03T13:39:43.745Z,19.23
2022-12-03T13:42:32.495Z,20.60
2022-12-03T13:45:04.572Z,20.33
2022-12-03T13:47:35.005Z,19.37
2022-12-03T13:50:04.361Z,20.80
2022-12-03T13:52:33.153Z,20.13
2022-12-03T13:55:04.627Z,21.30
2022-12-03T13:57:48.680Z,19.67
2022-12-03T14:00:17.425Z,19.43
2022-12-03T14:03:05.747Z,20.37
2022-12-03T14:05:36.539Z,20.00
2022-12-03T14:08:06.277Z,18.90
2022-12-03T14:10:36.556Z,19.53
2022-12-03T14:13:05.231Z,19.53
2022-12-03T14:15:35.410Z,19.30
2022-12-03T14:18:03.868Z,21.00
2022-12-03T14:20:32.244Z,19.07
2022-12-03T14:23:03.596Z,20.30
2022-12-03T14:25:34.172Z,20.17
2022-12-03T14:28:11.800Z,20.13
2022-12-03T14:30:40.229Z,19.27
2022-12-03T14:33:08.889Z,18.83
2022-12-03T14:35:37.473Z,17.83
2022-12-03T14:38:05.977Z,17.57
2022-12-03T14:40:35.010Z,16.90
2022-12-03T14:43:17.901Z,17.50
2022-12-03T14:45:49.364Z,18.33
2022-12-03T14:48:18.000Z,18.80
2022-12-03T14:50:48.502Z,19.47
2022-12-03T14:53:17.123Z,19.47
2022-12-03T14:55:48.085Z,18.80
2022-12-03T14:58:17.992Z,19.73
2022-12-03T15:00:56.146Z,18.53
2022-12-03T15:03:27.265Z,17.83
2022-12-03T15:05:55.822Z,19.47
2022-12-03T15:08:24.321Z,17.77
2022-12-03T15:10:53.004Z,18.27
2022-12-03T15:13:23.192Z,19.23
2022-12-03T15:18:31.949Z,21.13
2022-12-03T15:21:00.864Z,19.30
2022-12-03T15:23:29.325Z,18.43
2022-12-03T15:25:58.550Z,20.07
2022-12-03T15:28:28.321Z,21.60
2022-12-03T15:31:23.025Z,20.60
2022-12-03T15:33:59.237Z,20.23
2022-12-03T15:36:33.012Z,22.43
2022-12-03T15:39:01.444Z,22.80
2022-12-03T15:41:30.236Z,21.90
2022-12-03T15:44:01.798Z,25.80
2022-12-03T15:46:31.470Z,22.47
2022-12-03T15:49:00.956Z,22.57
2022-12-03T15:51:29.302Z,22.00
2022-12-03T15:53:57.785Z,22.47
2022-12-03T15:56:26.356Z,22.17
2022-12-03T15:58:54.710Z,22.43
2022-12-03T16:01:24.793Z,23.13
2022-12-03T16:03:53.188Z,22.77
2022-12-03T16:06:21.625Z,24.17
2022-12-03T16:08:50.245Z,22.90
2022-12-03T16:11:18.570Z,23.33
2022-12-03T16:13:47.152Z,22.23
2022-12-03T16:16:15.542Z,23.47
2022-12-03T16:18:45.720Z,23.00
2022-12-03T16:21:14.348Z,21.60
2022-12-03T16:23:42.834Z,21.40
2022-12-03T16:26:11.188Z,23.03
2022-12-03T16:28:39.540Z,21.83
2022-12-03T16:31:07.986Z,21.50
2022-12-03T16:33:36.564Z,22.63
2022-12-03T16:36:06.891Z,23.47
2022-12-03T16:38:35.216Z,21.83
2022-12-03T16:41:03.530Z,22.27
2022-12-03T16:43:34.158Z,21.70
2022-12-03T16:46:20.781Z,21.60
2022-12-03T16:48:49.388Z,21.60
2022-12-03T16:51:20.222Z,21.33
2022-12-03T16:53:48.664Z,22.33
2022-12-03T16:56:17.081Z,22.70
2022-12-03T16:58:45.574Z,23.23
2022-12-03T17:01:14.079Z,23.53
2022-12-03T17:03:45.375Z,21.40
2022-12-03T17:06:13.914Z,23.87
2022-12-03T17:08:48.974Z,25.70
2022-12-03T17:11:21.122Z,23.67
2022-12-03T17:13:49.538Z,22.30
2022-12-03T17:16:18.146Z,21.27
2022-12-03T17:18:46.680Z,21.03
2022-12-03T17:21:15.392Z,22.53
2022-12-03T17:23:48.803Z,20.57
2022-12-03T17:26:17.114Z,20.80
2022-12-03T17:28:45.561Z,20.03
2022-12-03T17:31:14.028Z,19.27
2022-12-03T17:33:42.532Z,20.20
2022-12-03T17:36:11.178Z,19.40
2022-12-03T17:38:39.659Z,19.53
2022-12-03T17:41:09.327Z,18.67
2022-12-03T17:43:38.815Z,19.47
2022-12-03T17:46:07.519Z,19.77
2022-12-03T17:48:36.365Z,19.03
2022-12-03T17:51:04.709Z,20.20
2022-12-03T17:53:35.955Z,20.10
2022-12-03T17:56:04.239Z,20.10
2022-12-03T17:58:33.969Z,19.73
2022-12-03T18:01:03.285Z,19.63
2022-12-03T18:03:32.398Z,21.03
2022-12-03T18:06:00.851Z,21.23
2022-12-03T18:08:29.332Z,22.30
2022-12-03T18:10:57.913Z,20.93
2022-12-03T18:13:26.359Z,21.73
2022-12-03T18:15:56.427Z,22.53
2022-12-03T18:18:24.884Z,21.50
2022-12-03T18:20:53.640Z,22.70
2022-12-03T18:23:22.179Z,21.80
2022-12-03T18:25:50.889Z,21.43
2022-12-03T18:28:19.573Z,21.43
2022-12-03T18:30:52.495Z,23.10
2022-12-03T18:33:23.591Z,24.80
2022-12-03T18:35:53.864Z,20.80
2022-12-03T18:38:22.207Z,22.30
2022-12-03T18:40:50.563Z,23.70
2022-12-03T18:43:18.853Z,23.53
2022-12-03T18:45:47.180Z,23.13
2022-12-03T18:48:15.899Z,25.07
2022-12-03T18:50:45.727Z,24.90
2022-12-03T18:53:14.066Z,24.00
2022-12-03T18:55:42.813Z,23.77
2022-12-03T18:58:11.523Z,24.30
2022-12-03T19:00:39.938Z,24.47
2022-12-03T19:03:09.569Z,22.33
2022-12-03T19:05:38.138Z,23.70
2022-12-03T19:08:14.467Z,23.87
2022-12-03T19:10:43.286Z,24.47
2022-12-03T19:13:11.694Z,23.17
2022-12-03T19:15:40.259Z,23.60
2022-12-03T19:18:08.763Z,24.10
2022-12-03T19:20:37.170Z,24.13
2022-12-03T19:23:05.655Z,25.20
2022-12-03T19:25:35.524Z,24.30
2022-12-03T19:28:03.902Z,23.73
2022-12-03T19:30:32.259Z,24.57
2022-12-03T19:33:00.683Z,23.93
2022-12-03T19:35:29.028Z,22.87
2022-12-03T19:37:58.437Z,24.47
2022-12-03T19:40:27.016Z,24.50
2022-12-03T19:42:56.725Z,23.40
2022-12-03T19:45:25.276Z,25.10
2022-12-03T19:47:53.616Z,24.37
2022-12-03T19:50:23.527Z,25.03
2022-12-03T19:52:52.286Z,24.20
2022-12-03T19:55:20.849Z,26.27
2022-12-03T19:57:49.188Z,25.83
2022-12-03T20:00:19.330Z,24.17
2022-12-03T20:02:49.909Z,25.40
2022-12-03T20:05:18.286Z,24.67
2022-12-03T20:07:46.796Z,25.80
2022-12-03T20:10:15.200Z,25.33
2022-12-03T20:12:43.590Z,25.50
2022-12-03T20:15:12.785Z,25.33
2022-12-03T20:17:42.543Z,24.60
2022-12-03T20:20:11.478Z,25.00
2022-12-03T20:22:39.854Z,25.77
2022-12-03T20:25:08.748Z,25.80
2022-12-03T20:27:37.173Z,25.93
2022-12-03T20:30:05.818Z,24.67
2022-12-03T20:32:34.284Z,25.33
2022-12-03T20:35:04.575Z,25.70
2022-12-03T20:37:32.916Z,25.60
2022-12-03T20:40:01.282Z,25.40
2022-12-03T20:42:29.773Z,26.03
2022-12-03T20:44:58.111Z,25.97
2022-12-03T20:47:26.512Z,24.70
2022-12-03T20:49:55.446Z,26.43
2022-12-03T20:52:25.383Z,25.83
2022-12-03T20:54:53.684Z,25.33
2022-12-03T20:57:22.016Z,24.73
2022-12-03T20:59:50.538Z,26.03
2022-12-03T21:02:19.180Z,25.03
2022-12-03T21:04:47.733Z,25.00
2022-12-03T21:07:16.276Z,25.37
2022-12-03T21:09:45.882Z,26.47
2022-12-03T21:12:14.185Z,25.57
2022-12-03T21:14:42.577Z,25.57
2022-12-03T21:17:11.187Z,26.53
2022-12-03T21:19:39.551Z,26.23
2022-12-03T21:22:10.303Z,26.30
2022-12-03T21:24:38.954Z,25.13
2022-12-03T21:27:08.806Z,25.23
2022-12-03T21:29:37.293Z,26.10
2022-12-03T21:32:05.780Z,25.17
2022-12-03T21:34:36.372Z,24.43
2022-12-03T21:37:05.272Z,25.33
2022-12-03T21:39:33.704Z,26.03
2022-12-03T21:42:18.921Z,25.20
2022-12-03T21:44:52.014Z,24.93
2022-12-03T21:47:20.498Z,29.73
2022-12-03T21:49:48.914Z,26.07
2022-12-03T21:52:19.025Z,27.97
2022-12-03T21:54:47.508Z,27.30
2022-12-03T21:57:15.937Z,24.90
2022-12-03T21:59:44.550Z,24.83
2022-12-03T22:02:14.390Z,24.70
2022-12-03T22:04:43.024Z,24.60
2022-12-03T22:07:11.595Z,24.70
2022-12-03T22:09:39.989Z,24.47
2022-12-03T22:12:08.609Z,24.87
2022-12-03T22:14:37.439Z,25.37
2022-12-03T22:17:06.012Z,24.53
2022-12-03T22:19:35.786Z,23.67
2022-12-03T22:22:04.124Z,23.93
2022-12-03T22:24:32.582Z,24.70
2022-12-03T22:27:01.151Z,23.77
2022-12-03T22:29:29.609Z,25.07
2022-12-03T22:31:58.059Z,24.80
2022-12-03T22:34:26.719Z,24.63
2022-12-03T22:36:56.711Z,23.87
2022-12-03T22:39:26.382Z,25.67
2022-12-03T22:41:54.721Z,23.77
2022-12-03T22:44:23.160Z,23.83
2022-12-03T22:46:51.953Z,24.30
2022-12-03T22:49:20.641Z,24.13
2022-12-03T22:51:49.055Z,23.80
2022-12-03T22:54:23.742Z,23.67
2022-12-03T22:56:52.551Z,24.97
2022-12-03T22:59:21.158Z,24.33
2022-12-03T23:01:49.549Z,26.40
2022-12-03T23:04:18.097Z,25.33
2022-12-03T23:06:46.760Z,23.83
2022-12-03T23:09:15.171Z,23.50
2022-12-03T23:11:46.266Z,24.60
2022-12-03T23:14:14.588Z,24.97
2022-12-03T23:16:43.012Z,24.03
2022-12-03T23:19:11.735Z,25.43
2022-12-03T23:21:40.333Z,25.23
2022-12-03T23:24:08.813Z,23.43
2022-12-03T23:26:37.550Z,26.27
2022-12-03T23:29:08.668Z,25.67
2022-12-03T23:31:37.406Z,24.23
2022-12-03T23:34:05.922Z,25.80
2022-12-03T23:36:34.466Z,24.23
2022-12-03T23:39:03.391Z,23.90
2022-12-03T23:41:31.864Z,23.60
2022-12-03T23:44:00.254Z,24.90
2022-12-03T23:46:30.387Z,25.10
2022-12-03T23:48:59.824Z,24.27
2022-12-03T23:51:28.632Z,23.60
2022-12-03T23:53:57.260Z,25.03
2022-12-03T23:56:26.414Z,24.13
2022-12-03T23:58:55.162Z,24.60
